sensor_id;sensor_type;location;lat;lon;timestamp;temperature;humidity
12926;DHT22;6529;50.566;9.774;2022-08-20T00:30:16;17.60;99.90
12926;DHT22;6529;50.566;9.774;2022-08-20T00:32:50;17.40;99.90
12926;DHT22;6529;50.566;9.774;2022-08-20T00:35:19;17.30;99.90
12926;DHT22;6529;50.566;9.774;2022-08-20T00:37:45;17.30;99.90
12926;DHT22;6529;50.566;9.774;2022-08-20T00:40:14;17.40;99.90
12926;DHT22;6529;50.566;9.774;2022-08-20T00:42:46;17.40;99.90
12926;DHT22;6529;50.566;9.774;2022-08-20T00:45:13;17.40;99.90
12926;DHT22;6529;50.566;9.774;2022-08-20T00:47:39;17.20;99.90
12926;DHT22;6529;50.566;9.774;2022-08-20T00:50:09;17.10;99.90
12926;DHT22;6529;50.566;9.774;2022-08-20T00:52:34;17.10;99.90
12926;DHT22;6529;50.566;9.774;2022-08-20T00:55:02;17.20;99.90
12926;DHT22;6529;50.566;9.774;2022-08-20T00:57:34;17.20;99.90
12926;DHT22;6529;50.566;9.774;2022-08-20T01:00:05;17.20;99.90
12926;DHT22;6529;50.566;9.774;2022-08-20T01:02:33;17.30;99.90
12926;DHT22;6529;50.566;9.774;2022-08-20T01:04:59;17.30;99.90
12926;DHT22;6529;50.566;9.774;2022-08-20T01:07:27;17.30;99.90
12926;DHT22;6529;50.566;9.774;2022-08-20T01:10:04;17.20;99.90
12926;DHT22;6529;50.566;9.774;2022-08-20T01:12:31;17.10;99.90
12926;DHT22;6529;50.566;9.774;2022-08-20T01:14:59;17.00;99.90
12926;DHT22;6529;50.566;9.774;2022-08-20T01:17:27;17.00;99.90
12926;DHT22;6529;50.566;9.774;2022-08-20T01:20:10;17.00;99.90
12926;DHT22;6529;50.566;9.774;2022-08-20T01:25:48;17.10;99.90
12926;DHT22;6529;50.566;9.774;2022-08-20T01:28:17;17.10;99.90
12926;DHT22;6529;50.566;9.774;2022-08-20T01:30:44;17.10;99.90
12926;DHT22;6529;50.566;9.774;2022-08-20T01:33:10;17.20;99.90
12926;DHT22;6529;50.566;9.774;2022-08-20T01:35:40;17.20;99.90
12926;DHT22;6529;50.566;9.774;2022-08-20T01:38:07;17.10;99.90
12926;DHT22;6529;50.566;9.774;2022-08-20T01:41:03;16.90;99.90
12926;DHT22;6529;50.566;9.774;2022-08-20T01:43:30;16.90;99.90
12926;DHT22;6529;50.566;9.774;2022-08-20T01:45:56;16.80;99.90
12926;DHT22;6529;50.566;9.774;2022-08-20T01:48:22;16.90;99.90
12926;DHT22;6529;50.566;9.774;2022-08-20T01:51:13;17.00;99.90
12926;DHT22;6529;50.566;9.774;2022-08-20T01:53:45;17.00;99.90
12926;DHT22;6529;50.566;9.774;2022-08-20T01:56:14;17.00;99.90
12926;DHT22;6529;50.566;9.774;2022-08-20T01:58:47;17.10;99.90
12926;DHT22;6529;50.566;9.774;2022-08-20T02:03:52;17.10;99.90
12926;DHT22;6529;50.566;9.774;2022-08-20T02:06:19;17.10;99.90
12926;DHT22;6529;50.566;9.774;2022-08-20T02:08:49;17.10;99.90
12926;DHT22;6529;50.566;9.774;2022-08-20T02:11:15;17.20;99.90
12926;DHT22;6529;50.566;9.774;2022-08-20T02:13:41;17.00;99.90
12926;DHT22;6529;50.566;9.774;2022-08-20T02:16:07;17.00;99.90
12926;DHT22;6529;50.566;9.774;2022-08-20T02:18:33;17.00;99.90
12926;DHT22;6529;50.566;9.774;2022-08-20T02:20:59;16.90;99.90
12926;DHT22;6529;50.566;9.774;2022-08-20T02:23:25;16.90;99.90
12926;DHT22;6529;50.566;9.774;2022-08-20T02:25:51;16.90;99.90
12926;DHT22;6529;50.566;9.774;2022-08-20T02:28:17;16.90;99.90
12926;DHT22;6529;50.566;9.774;2022-08-20T02:30:48;16.90;99.90
12926;DHT22;6529;50.566;9.774;2022-08-20T02:33:17;16.80;99.90
12926;DHT22;6529;50.566;9.774;2022-08-20T02:35:46;16.80;99.90
12926;DHT22;6529;50.566;9.774;2022-08-20T02:38:13;16.80;99.90
12926;DHT22;6529;50.566;9.774;2022-08-20T02:40:41;16.80;99.90
12926;DHT22;6529;50.566;9.774;2022-08-20T02:43:08;16.70;99.90
12926;DHT22;6529;50.566;9.774;2022-08-20T02:45:34;16.90;99.90
12926;DHT22;6529;50.566;9.774;2022-08-20T02:48:00;16.90;99.90
12926;DHT22;6529;50.566;9.774;2022-08-20T02:50:26;16.90;99.90
12926;DHT22;6529;50.566;9.774;2022-08-20T02:52:52;16.90;99.90
12926;DHT22;6529;50.566;9.774;2022-08-20T02:55:19;16.80;99.90
12926;DHT22;6529;50.566;9.774;2022-08-20T02:57:45;16.80;99.90
12926;DHT22;6529;50.566;9.774;2022-08-20T03:00:15;16.70;99.90
12926;DHT22;6529;50.566;9.774;2022-08-20T03:02:43;16.80;99.90
12926;DHT22;6529;50.566;9.774;2022-08-20T03:05:10;16.90;99.90
12926;DHT22;6529;50.566;9.774;2022-08-20T03:07:48;17.00;99.90
12926;DHT22;6529;50.566;9.774;2022-08-20T03:10:14;16.80;99.90
12926;DHT22;6529;50.566;9.774;2022-08-20T03:12:41;16.80;99.90
12926;DHT22;6529;50.566;9.774;2022-08-20T03:15:09;16.60;99.90
12926;DHT22;6529;50.566;9.774;2022-08-20T03:17:35;16.50;99.90
12926;DHT22;6529;50.566;9.774;2022-08-20T03:20:03;16.50;99.90
12926;DHT22;6529;50.566;9.774;2022-08-20T03:22:29;16.60;99.90
12926;DHT22;6529;50.566;9.774;2022-08-20T03:24:55;16.50;99.90
12926;DHT22;6529;50.566;9.774;2022-08-20T03:27:20;16.50;99.90
12926;DHT22;6529;50.566;9.774;2022-08-20T03:29:46;16.50;99.90
12926;DHT22;6529;50.566;9.774;2022-08-20T03:32:12;16.50;99.90
12926;DHT22;6529;50.566;9.774;2022-08-20T03:34:37;16.50;99.90
12926;DHT22;6529;50.566;9.774;2022-08-20T03:37:03;16.40;99.90
12926;DHT22;6529;50.566;9.774;2022-08-20T03:39:29;16.50;99.90
12926;DHT22;6529;50.566;9.774;2022-08-20T03:41:54;16.50;99.90
12926;DHT22;6529;50.566;9.774;2022-08-20T03:44:20;16.50;99.90
12926;DHT22;6529;50.566;9.774;2022-08-20T03:46:46;16.50;99.90
12926;DHT22;6529;50.566;9.774;2022-08-20T03:49:11;16.50;99.90
12926;DHT22;6529;50.566;9.774;2022-08-20T03:51:37;16.60;99.90
12926;DHT22;6529;50.566;9.774;2022-08-20T03:54:03;16.70;99.90
12926;DHT22;6529;50.566;9.774;2022-08-20T03:56:28;16.50;99.90
12926;DHT22;6529;50.566;9.774;2022-08-20T03:58:54;16.40;99.90
12926;DHT22;6529;50.566;9.774;2022-08-20T04:01:20;16.30;99.90
12926;DHT22;6529;50.566;9.774;2022-08-20T04:03:46;16.30;99.90
12926;DHT22;6529;50.566;9.774;2022-08-20T04:06:11;16.30;99.90
12926;DHT22;6529;50.566;9.774;2022-08-20T04:08:37;16.40;99.90
12926;DHT22;6529;50.566;9.774;2022-08-20T04:11:04;16.40;99.90
12926;DHT22;6529;50.566;9.774;2022-08-20T04:13:30;16.40;99.90
12926;DHT22;6529;50.566;9.774;2022-08-20T04:15:56;16.40;99.90
12926;DHT22;6529;50.566;9.774;2022-08-20T04:18:23;16.30;99.90
12926;DHT22;6529;50.566;9.774;2022-08-20T04:20:51;16.40;99.90
12926;DHT22;6529;50.566;9.774;2022-08-20T04:23:17;16.40;99.90
12926;DHT22;6529;50.566;9.774;2022-08-20T04:25:44;16.50;99.90
12926;DHT22;6529;50.566;9.774;2022-08-20T04:28:16;16.40;99.90
12926;DHT22;6529;50.566;9.774;2022-08-20T04:30:51;16.50;99.90
12926;DHT22;6529;50.566;9.774;2022-08-20T04:33:21;16.50;99.90
12926;DHT22;6529;50.566;9.774;2022-08-20T04:35:48;16.30;99.90
12926;DHT22;6529;50.566;9.774;2022-08-20T04:38:17;16.30;99.90
12926;DHT22;6529;50.566;9.774;2022-08-20T04:40:43;16.30;99.90
12926;DHT22;6529;50.566;9.774;2022-08-20T04:45:52;16.30;99.90
12926;DHT22;6529;50.566;9.774;2022-08-20T04:48:18;16.40;99.90
12926;DHT22;6529;50.566;9.774;2022-08-20T04:50:45;16.40;99.90
12926;DHT22;6529;50.566;9.774;2022-08-20T04:53:15;16.50;99.90
12926;DHT22;6529;50.566;9.774;2022-08-20T04:55:43;16.60;99.90
12926;DHT22;6529;50.566;9.774;2022-08-20T04:58:20;16.70;99.90
12926;DHT22;6529;50.566;9.774;2022-08-20T05:00:48;16.80;99.90
12926;DHT22;6529;50.566;9.774;2022-08-20T05:03:14;16.80;99.90
12926;DHT22;6529;50.566;9.774;2022-08-20T05:05:40;17.00;99.90
12926;DHT22;6529;50.566;9.774;2022-08-20T05:08:06;17.00;99.90
12926;DHT22;6529;50.566;9.774;2022-08-20T05:10:32;17.00;99.90
12926;DHT22;6529;50.566;9.774;2022-08-20T05:12:59;17.00;99.90
12926;DHT22;6529;50.566;9.774;2022-08-20T05:15:24;17.00;99.90
12926;DHT22;6529;50.566;9.774;2022-08-20T05:17:55;17.00;99.90
12926;DHT22;6529;50.566;9.774;2022-08-20T05:20:21;16.90;99.90
12926;DHT22;6529;50.566;9.774;2022-08-20T05:22:47;17.00;99.90
12926;DHT22;6529;50.566;9.774;2022-08-20T05:25:13;17.00;99.90
12926;DHT22;6529;50.566;9.774;2022-08-20T05:27:39;16.90;99.90
12926;DHT22;6529;50.566;9.774;2022-08-20T05:30:08;16.90;99.90
12926;DHT22;6529;50.566;9.774;2022-08-20T05:32:35;16.90;99.90
12926;DHT22;6529;50.566;9.774;2022-08-20T05:35:02;16.90;99.90
12926;DHT22;6529;50.566;9.774;2022-08-20T05:37:28;17.00;99.90
12926;DHT22;6529;50.566;9.774;2022-08-20T05:39:54;17.00;99.90
12926;DHT22;6529;50.566;9.774;2022-08-20T05:42:20;17.10;99.90
12926;DHT22;6529;50.566;9.774;2022-08-20T05:44:46;17.10;99.90
12926;DHT22;6529;50.566;9.774;2022-08-20T05:47:12;17.20;99.90
12926;DHT22;6529;50.566;9.774;2022-08-20T05:49:38;17.10;99.90
12926;DHT22;6529;50.566;9.774;2022-08-20T05:52:04;17.10;99.90
12926;DHT22;6529;50.566;9.774;2022-08-20T05:54:31;17.10;99.90
12926;DHT22;6529;50.566;9.774;2022-08-20T05:56:56;17.10;99.90
12926;DHT22;6529;50.566;9.774;2022-08-20T05:59:23;17.30;99.90
12926;DHT22;6529;50.566;9.774;2022-08-20T06:01:50;17.30;99.90
12926;DHT22;6529;50.566;9.774;2022-08-20T06:04:16;17.30;99.90
12926;DHT22;6529;50.566;9.774;2022-08-20T06:06:54;17.40;99.90
12926;DHT22;6529;50.566;9.774;2022-08-20T06:09:22;17.40;99.90
12926;DHT22;6529;50.566;9.774;2022-08-20T06:11:48;17.40;99.90
12926;DHT22;6529;50.566;9.774;2022-08-20T06:14:14;17.40;99.90
12926;DHT22;6529;50.566;9.774;2022-08-20T06:16:41;17.40;99.90
12926;DHT22;6529;50.566;9.774;2022-08-20T06:19:07;17.50;99.90
12926;DHT22;6529;50.566;9.774;2022-08-20T06:21:32;17.50;99.90
12926;DHT22;6529;50.566;9.774;2022-08-20T06:23:58;17.60;99.90
12926;DHT22;6529;50.566;9.774;2022-08-20T06:26:24;17.70;99.90
12926;DHT22;6529;50.566;9.774;2022-08-20T06:28:49;17.80;99.90
12926;DHT22;6529;50.566;9.774;2022-08-20T06:31:15;17.80;99.90
12926;DHT22;6529;50.566;9.774;2022-08-20T06:33:40;17.80;99.90
12926;DHT22;6529;50.566;9.774;2022-08-20T06:36:07;17.80;99.90
12926;DHT22;6529;50.566;9.774;2022-08-20T06:38:32;17.80;99.90
12926;DHT22;6529;50.566;9.774;2022-08-20T06:40:58;17.80;99.90
12926;DHT22;6529;50.566;9.774;2022-08-20T06:43:24;17.90;99.90
12926;DHT22;6529;50.566;9.774;2022-08-20T06:45:50;18.00;99.90
12926;DHT22;6529;50.566;9.774;2022-08-20T06:48:16;18.10;99.90
12926;DHT22;6529;50.566;9.774;2022-08-20T06:50:46;18.10;99.90
12926;DHT22;6529;50.566;9.774;2022-08-20T06:53:15;18.20;99.90
12926;DHT22;6529;50.566;9.774;2022-08-20T06:55:45;18.20;99.90
12926;DHT22;6529;50.566;9.774;2022-08-20T06:58:11;18.10;99.90
12926;DHT22;6529;50.566;9.774;2022-08-20T07:00:39;18.20;99.90
12926;DHT22;6529;50.566;9.774;2022-08-20T07:03:06;18.40;99.90
12926;DHT22;6529;50.566;9.774;2022-08-20T07:05:35;18.40;99.90
12926;DHT22;6529;50.566;9.774;2022-08-20T07:08:02;18.60;99.90
12926;DHT22;6529;50.566;9.774;2022-08-20T07:10:28;18.60;99.90
12926;DHT22;6529;50.566;9.774;2022-08-20T07:12:54;18.70;99.90
12926;DHT22;6529;50.566;9.774;2022-08-20T07:15:21;18.70;99.90
12926;DHT22;6529;50.566;9.774;2022-08-20T07:17:53;18.70;99.90
12926;DHT22;6529;50.566;9.774;2022-08-20T07:20:19;18.80;99.90
12926;DHT22;6529;50.566;9.774;2022-08-20T07:22:45;18.80;99.90
12926;DHT22;6529;50.566;9.774;2022-08-20T07:25:14;18.90;99.90
12926;DHT22;6529;50.566;9.774;2022-08-20T07:27:41;18.90;99.90
12926;DHT22;6529;50.566;9.774;2022-08-20T07:30:10;18.90;99.90
12926;DHT22;6529;50.566;9.774;2022-08-20T07:32:54;18.90;99.90
12926;DHT22;6529;50.566;9.774;2022-08-20T07:35:21;19.00;99.90
12926;DHT22;6529;50.566;9.774;2022-08-20T07:37:49;19.00;99.90
12926;DHT22;6529;50.566;9.774;2022-08-20T07:40:34;19.00;99.90
12926;DHT22;6529;50.566;9.774;2022-08-20T07:43:00;19.00;99.90
12926;DHT22;6529;50.566;9.774;2022-08-20T07:45:28;19.00;99.90
12926;DHT22;6529;50.566;9.774;2022-08-20T07:47:54;19.00;99.90
12926;DHT22;6529;50.566;9.774;2022-08-20T07:50:30;19.10;99.90
12926;DHT22;6529;50.566;9.774;2022-08-20T07:52:57;19.20;99.90
12926;DHT22;6529;50.566;9.774;2022-08-20T07:55:25;19.20;99.90
12926;DHT22;6529;50.566;9.774;2022-08-20T07:57:50;19.20;99.90
12926;DHT22;6529;50.566;9.774;2022-08-20T08:00:19;19.20;99.90
12926;DHT22;6529;50.566;9.774;2022-08-20T08:02:45;19.30;99.90
12926;DHT22;6529;50.566;9.774;2022-08-20T08:05:11;19.30;99.90
12926;DHT22;6529;50.566;9.774;2022-08-20T08:07:37;19.30;99.90
12926;DHT22;6529;50.566;9.774;2022-08-20T08:10:07;19.30;99.90
12926;DHT22;6529;50.566;9.774;2022-08-20T08:12:40;19.30;99.90
12926;DHT22;6529;50.566;9.774;2022-08-20T08:15:11;19.20;99.90
12926;DHT22;6529;50.566;9.774;2022-08-20T08:17:40;19.20;99.90
12926;DHT22;6529;50.566;9.774;2022-08-20T08:20:07;19.10;99.90
12926;DHT22;6529;50.566;9.774;2022-08-20T08:22:33;19.00;99.90
12926;DHT22;6529;50.566;9.774;2022-08-20T08:24:59;19.00;99.90
12926;DHT22;6529;50.566;9.774;2022-08-20T08:27:30;18.80;99.90
12926;DHT22;6529;50.566;9.774;2022-08-20T08:30:00;18.80;99.90
12926;DHT22;6529;50.566;9.774;2022-08-20T08:32:27;18.80;99.90
12926;DHT22;6529;50.566;9.774;2022-08-20T08:34:53;18.70;99.90
12926;DHT22;6529;50.566;9.774;2022-08-20T08:37:18;18.60;99.90
12926;DHT22;6529;50.566;9.774;2022-08-20T08:39:44;18.60;99.90
12926;DHT22;6529;50.566;9.774;2022-08-20T08:42:35;18.70;99.90
12926;DHT22;6529;50.566;9.774;2022-08-20T08:45:06;18.60;99.90
12926;DHT22;6529;50.566;9.774;2022-08-20T08:47:35;18.60;99.90
12926;DHT22;6529;50.566;9.774;2022-08-20T08:50:04;18.60;99.90
12926;DHT22;6529;50.566;9.774;2022-08-20T08:52:33;18.60;99.90
12926;DHT22;6529;50.566;9.774;2022-08-20T08:55:04;18.70;99.90
12926;DHT22;6529;50.566;9.774;2022-08-20T08:57:31;18.80;99.90
12926;DHT22;6529;50.566;9.774;2022-08-20T09:00:06;18.90;99.90
12926;DHT22;6529;50.566;9.774;2022-08-20T09:02:34;19.00;99.90
12926;DHT22;6529;50.566;9.774;2022-08-20T09:05:12;19.10;99.90
12926;DHT22;6529;50.566;9.774;2022-08-20T09:07:40;19.20;99.90
12926;DHT22;6529;50.566;9.774;2022-08-20T09:10:10;19.40;99.90
12926;DHT22;6529;50.566;9.774;2022-08-20T09:12:35;19.50;99.90
12926;DHT22;6529;50.566;9.774;2022-08-20T09:15:01;19.60;99.90
12926;DHT22;6529;50.566;9.774;2022-08-20T09:17:26;19.70;99.90
12926;DHT22;6529;50.566;9.774;2022-08-20T09:19:52;19.80;99.90
12926;DHT22;6529;50.566;9.774;2022-08-20T09:22:21;19.90;99.90
12926;DHT22;6529;50.566;9.774;2022-08-20T09:24:47;20.20;99.90
12926;DHT22;6529;50.566;9.774;2022-08-20T09:27:13;20.30;99.90
12926;DHT22;6529;50.566;9.774;2022-08-20T09:29:39;20.50;99.90
12926;DHT22;6529;50.566;9.774;2022-08-20T09:32:15;20.70;99.90
12926;DHT22;6529;50.566;9.774;2022-08-20T09:34:43;20.90;99.90
12926;DHT22;6529;50.566;9.774;2022-08-20T09:37:09;21.00;99.90
12926;DHT22;6529;50.566;9.774;2022-08-20T09:39:34;21.10;99.90
12926;DHT22;6529;50.566;9.774;2022-08-20T09:42:08;21.10;99.90
12926;DHT22;6529;50.566;9.774;2022-08-20T09:44:35;21.30;99.90
12926;DHT22;6529;50.566;9.774;2022-08-20T09:47:00;21.60;99.90
12926;DHT22;6529;50.566;9.774;2022-08-20T09:49:26;22.00;99.90
12926;DHT22;6529;50.566;9.774;2022-08-20T09:51:51;22.00;99.90
12926;DHT22;6529;50.566;9.774;2022-08-20T09:54:18;21.90;99.90
12926;DHT22;6529;50.566;9.774;2022-08-20T09:56:44;21.70;99.90
12926;DHT22;6529;50.566;9.774;2022-08-20T09:59:10;21.50;99.90
12926;DHT22;6529;50.566;9.774;2022-08-20T10:01:37;21.60;99.90
12926;DHT22;6529;50.566;9.774;2022-08-20T10:04:03;22.00;99.90
12926;DHT22;6529;50.566;9.774;2022-08-20T10:06:28;22.50;99.90
12926;DHT22;6529;50.566;9.774;2022-08-20T10:08:54;22.90;99.90
12926;DHT22;6529;50.566;9.774;2022-08-20T10:11:19;22.90;99.90
12926;DHT22;6529;50.566;9.774;2022-08-20T10:13:45;23.10;99.90
12926;DHT22;6529;50.566;9.774;2022-08-20T10:16:11;23.50;99.90
12926;DHT22;6529;50.566;9.774;2022-08-20T10:18:36;23.50;99.90
12926;DHT22;6529;50.566;9.774;2022-08-20T10:21:02;23.50;99.90
12926;DHT22;6529;50.566;9.774;2022-08-20T10:23:28;23.20;99.90
12926;DHT22;6529;50.566;9.774;2022-08-20T10:25:53;22.80;99.90
12926;DHT22;6529;50.566;9.774;2022-08-20T10:28:19;22.60;99.90
12926;DHT22;6529;50.566;9.774;2022-08-20T10:30:45;22.90;99.90
12926;DHT22;6529;50.566;9.774;2022-08-20T10:33:11;23.50;99.90
12926;DHT22;6529;50.566;9.774;2022-08-20T10:35:36;23.70;99.90
12926;DHT22;6529;50.566;9.774;2022-08-20T10:38:02;24.20;99.90
12926;DHT22;6529;50.566;9.774;2022-08-20T10:40:27;24.10;99.90
12926;DHT22;6529;50.566;9.774;2022-08-20T10:42:53;24.10;99.90
12926;DHT22;6529;50.566;9.774;2022-08-20T10:45:19;24.40;99.90
12926;DHT22;6529;50.566;9.774;2022-08-20T10:47:44;23.90;99.90
12926;DHT22;6529;50.566;9.774;2022-08-20T10:50:15;24.00;99.90
12926;DHT22;6529;50.566;9.774;2022-08-20T10:52:42;24.30;99.90
12926;DHT22;6529;50.566;9.774;2022-08-20T10:55:08;24.70;99.90
12926;DHT22;6529;50.566;9.774;2022-08-20T10:57:34;25.10;99.90
12926;DHT22;6529;50.566;9.774;2022-08-20T11:00:00;25.20;99.90
12926;DHT22;6529;50.566;9.774;2022-08-20T11:02:26;25.60;99.90
12926;DHT22;6529;50.566;9.774;2022-08-20T11:04:54;25.70;99.90
12926;DHT22;6529;50.566;9.774;2022-08-20T11:07:24;25.80;99.90
12926;DHT22;6529;50.566;9.774;2022-08-20T11:09:50;26.10;99.90
12926;DHT22;6529;50.566;9.774;2022-08-20T11:12:18;26.00;99.90
12926;DHT22;6529;50.566;9.774;2022-08-20T11:14:44;26.20;99.90
12926;DHT22;6529;50.566;9.774;2022-08-20T11:17:10;26.40;99.90
12926;DHT22;6529;50.566;9.774;2022-08-20T11:19:43;26.80;99.90
12926;DHT22;6529;50.566;9.774;2022-08-20T11:22:10;26.80;99.90
12926;DHT22;6529;50.566;9.774;2022-08-20T11:24:36;26.40;99.90
12926;DHT22;6529;50.566;9.774;2022-08-20T11:27:04;26.70;99.90
12926;DHT22;6529;50.566;9.774;2022-08-20T11:29:32;26.80;99.90
12926;DHT22;6529;50.566;9.774;2022-08-20T11:31:58;27.10;99.90
12926;DHT22;6529;50.566;9.774;2022-08-20T11:34:24;26.80;99.90
12926;DHT22;6529;50.566;9.774;2022-08-20T11:36:49;26.10;99.90
12926;DHT22;6529;50.566;9.774;2022-08-20T11:39:16;25.60;99.90
12926;DHT22;6529;50.566;9.774;2022-08-20T11:41:41;25.30;99.90
12926;DHT22;6529;50.566;9.774;2022-08-20T11:44:07;25.10;99.90
12926;DHT22;6529;50.566;9.774;2022-08-20T11:46:33;25.00;99.90
12926;DHT22;6529;50.566;9.774;2022-08-20T11:48:59;24.90;99.90
12926;DHT22;6529;50.566;9.774;2022-08-20T11:51:24;25.00;99.90
12926;DHT22;6529;50.566;9.774;2022-08-20T11:53:50;24.90;99.90
12926;DHT22;6529;50.566;9.774;2022-08-20T11:56:16;24.80;99.90
12926;DHT22;6529;50.566;9.774;2022-08-20T11:58:43;24.70;99.90
12926;DHT22;6529;50.566;9.774;2022-08-20T12:01:08;24.50;99.90
12926;DHT22;6529;50.566;9.774;2022-08-20T12:03:35;24.50;99.90
12926;DHT22;6529;50.566;9.774;2022-08-20T12:06:01;24.40;99.90
12926;DHT22;6529;50.566;9.774;2022-08-20T12:08:26;24.30;99.90
12926;DHT22;6529;50.566;9.774;2022-08-20T12:10:57;24.10;99.90
12926;DHT22;6529;50.566;9.774;2022-08-20T12:13:24;24.00;99.90
12926;DHT22;6529;50.566;9.774;2022-08-20T12:15:52;24.10;99.90
12926;DHT22;6529;50.566;9.774;2022-08-20T12:18:18;24.10;99.90
12926;DHT22;6529;50.566;9.774;2022-08-20T12:20:45;24.10;99.90
12926;DHT22;6529;50.566;9.774;2022-08-20T12:23:10;24.10;99.90
12926;DHT22;6529;50.566;9.774;2022-08-20T12:25:36;24.00;99.90
12926;DHT22;6529;50.566;9.774;2022-08-20T12:28:02;23.90;99.90
12926;DHT22;6529;50.566;9.774;2022-08-20T12:30:29;24.00;99.90
12926;DHT22;6529;50.566;9.774;2022-08-20T12:32:55;24.00;99.90
12926;DHT22;6529;50.566;9.774;2022-08-20T12:35:21;24.10;99.90
12926;DHT22;6529;50.566;9.774;2022-08-20T12:37:48;24.20;99.90
12926;DHT22;6529;50.566;9.774;2022-08-20T12:40:25;24.70;99.90
12926;DHT22;6529;50.566;9.774;2022-08-20T12:42:51;25.50;99.90
12926;DHT22;6529;50.566;9.774;2022-08-20T12:45:17;26.20;99.90
12926;DHT22;6529;50.566;9.774;2022-08-20T12:47:44;26.30;99.90
12926;DHT22;6529;50.566;9.774;2022-08-20T12:50:13;26.00;99.90
12926;DHT22;6529;50.566;9.774;2022-08-20T12:52:39;25.70;99.90
12926;DHT22;6529;50.566;9.774;2022-08-20T12:55:08;25.30;99.90
12926;DHT22;6529;50.566;9.774;2022-08-20T12:57:45;24.90;99.90
12926;DHT22;6529;50.566;9.774;2022-08-20T13:00:28;24.60;99.90
12926;DHT22;6529;50.566;9.774;2022-08-20T13:02:56;24.30;99.90
12926;DHT22;6529;50.566;9.774;2022-08-20T13:05:22;24.10;99.90
12926;DHT22;6529;50.566;9.774;2022-08-20T13:07:49;23.80;99.90
12926;DHT22;6529;50.566;9.774;2022-08-20T13:10:32;23.50;99.90
12926;DHT22;6529;50.566;9.774;2022-08-20T13:12:58;23.30;99.90
12926;DHT22;6529;50.566;9.774;2022-08-20T13:15:27;23.10;99.90
12926;DHT22;6529;50.566;9.774;2022-08-20T13:17:55;22.90;99.90
12926;DHT22;6529;50.566;9.774;2022-08-20T13:20:21;22.60;99.90
12926;DHT22;6529;50.566;9.774;2022-08-20T13:22:50;22.30;99.90
12926;DHT22;6529;50.566;9.774;2022-08-20T13:25:16;22.10;99.90
12926;DHT22;6529;50.566;9.774;2022-08-20T13:27:43;21.80;99.90
12926;DHT22;6529;50.566;9.774;2022-08-20T13:30:12;21.60;99.90
12926;DHT22;6529;50.566;9.774;2022-08-20T13:32:38;21.20;99.90
12926;DHT22;6529;50.566;9.774;2022-08-20T13:35:04;21.10;99.90
12926;DHT22;6529;50.566;9.774;2022-08-20T13:37:31;21.00;99.90
12926;DHT22;6529;50.566;9.774;2022-08-20T13:39:57;21.10;99.90
12926;DHT22;6529;50.566;9.774;2022-08-20T13:42:25;21.50;99.90
12926;DHT22;6529;50.566;9.774;2022-08-20T13:44:51;22.20;99.90
12926;DHT22;6529;50.566;9.774;2022-08-20T13:47:22;23.10;99.90
12926;DHT22;6529;50.566;9.774;2022-08-20T13:49:57;23.40;99.90
12926;DHT22;6529;50.566;9.774;2022-08-20T13:52:24;23.50;99.90
12926;DHT22;6529;50.566;9.774;2022-08-20T13:54:49;24.10;99.90
12926;DHT22;6529;50.566;9.774;2022-08-20T13:57:21;24.50;99.90
12926;DHT22;6529;50.566;9.774;2022-08-20T13:59:49;24.90;99.90
12926;DHT22;6529;50.566;9.774;2022-08-20T14:02:16;25.10;99.90
12926;DHT22;6529;50.566;9.774;2022-08-20T14:04:42;25.20;99.90
12926;DHT22;6529;50.566;9.774;2022-08-20T14:07:23;25.40;99.90
12926;DHT22;6529;50.566;9.774;2022-08-20T14:09:55;25.50;99.90
12926;DHT22;6529;50.566;9.774;2022-08-20T14:12:22;25.40;99.90
12926;DHT22;6529;50.566;9.774;2022-08-20T14:14:49;25.20;99.90
12926;DHT22;6529;50.566;9.774;2022-08-20T14:19:50;25.20;99.90
12926;DHT22;6529;50.566;9.774;2022-08-20T14:22:16;25.60;99.90
12926;DHT22;6529;50.566;9.774;2022-08-20T14:24:43;25.90;99.90
12926;DHT22;6529;50.566;9.774;2022-08-20T14:27:09;26.00;99.90
12926;DHT22;6529;50.566;9.774;2022-08-20T14:29:37;26.10;99.90
12926;DHT22;6529;50.566;9.774;2022-08-20T14:32:04;26.20;99.90
12926;DHT22;6529;50.566;9.774;2022-08-20T14:34:30;26.00;99.90
12926;DHT22;6529;50.566;9.774;2022-08-20T14:37:07;26.00;99.90
12926;DHT22;6529;50.566;9.774;2022-08-20T14:39:33;26.30;99.90
12926;DHT22;6529;50.566;9.774;2022-08-20T14:41:59;26.50;99.90
12926;DHT22;6529;50.566;9.774;2022-08-20T14:44:24;26.90;99.90
12926;DHT22;6529;50.566;9.774;2022-08-20T14:46:50;27.10;99.90
12926;DHT22;6529;50.566;9.774;2022-08-20T14:49:15;27.30;99.90
12926;DHT22;6529;50.566;9.774;2022-08-20T14:51:41;27.20;99.90
12926;DHT22;6529;50.566;9.774;2022-08-20T14:54:06;27.40;99.90
12926;DHT22;6529;50.566;9.774;2022-08-20T14:56:32;27.20;99.90
12926;DHT22;6529;50.566;9.774;2022-08-20T14:58:58;27.20;99.90
12926;DHT22;6529;50.566;9.774;2022-08-20T15:01:23;27.10;99.90
12926;DHT22;6529;50.566;9.774;2022-08-20T15:03:49;27.10;99.90
12926;DHT22;6529;50.566;9.774;2022-08-20T15:06:14;27.20;99.90
12926;DHT22;6529;50.566;9.774;2022-08-20T15:08:40;27.60;99.90
12926;DHT22;6529;50.566;9.774;2022-08-20T15:11:05;27.80;99.90
12926;DHT22;6529;50.566;9.774;2022-08-20T15:13:32;28.30;99.90
12926;DHT22;6529;50.566;9.774;2022-08-20T15:15:58;28.60;99.90
12926;DHT22;6529;50.566;9.774;2022-08-20T15:18:24;28.30;99.90
12926;DHT22;6529;50.566;9.774;2022-08-20T15:20:51;28.30;99.90
12926;DHT22;6529;50.566;9.774;2022-08-20T15:23:16;27.80;99.90
12926;DHT22;6529;50.566;9.774;2022-08-20T15:25:42;27.70;99.90
12926;DHT22;6529;50.566;9.774;2022-08-20T15:28:08;27.60;99.90
12926;DHT22;6529;50.566;9.774;2022-08-20T15:30:35;27.50;99.90
12926;DHT22;6529;50.566;9.774;2022-08-20T15:33:01;27.40;99.90
12926;DHT22;6529;50.566;9.774;2022-08-20T15:35:27;27.20;99.90
12926;DHT22;6529;50.566;9.774;2022-08-20T15:37:55;27.00;99.90
12926;DHT22;6529;50.566;9.774;2022-08-20T15:40:23;27.10;99.90
12926;DHT22;6529;50.566;9.774;2022-08-20T15:42:49;27.20;99.90
12926;DHT22;6529;50.566;9.774;2022-08-20T15:45:15;27.00;99.90
12926;DHT22;6529;50.566;9.774;2022-08-20T15:52:55;26.80;99.90
12926;DHT22;6529;50.566;9.774;2022-08-20T15:55:21;26.40;99.90
12926;DHT22;6529;50.566;9.774;2022-08-20T16:00:48;26.60;99.90
12926;DHT22;6529;50.566;9.774;2022-08-20T16:06:14;27.00;99.90
12926;DHT22;6529;50.566;9.774;2022-08-20T16:11:40;26.90;99.90
12926;DHT22;6529;50.566;9.774;2022-08-20T16:14:20;27.10;99.90
12926;DHT22;6529;50.566;9.774;2022-08-20T16:20:14;26.50;99.90
12926;DHT22;6529;50.566;9.774;2022-08-20T16:22:20;26.80;99.90
12926;DHT22;6529;50.566;9.774;2022-08-20T16:24:47;26.80;99.90
12926;DHT22;6529;50.566;9.774;2022-08-20T16:30:19;26.60;99.90
12926;DHT22;6529;50.566;9.774;2022-08-20T16:32:47;26.70;99.90
12926;DHT22;6529;50.566;9.774;2022-08-20T16:35:34;26.80;99.90
12926;DHT22;6529;50.566;9.774;2022-08-20T16:40:55;26.50;99.90
12926;DHT22;6529;50.566;9.774;2022-08-20T16:43:33;26.40;99.90
12926;DHT22;6529;50.566;9.774;2022-08-20T16:46:20;26.30;99.90
12926;DHT22;6529;50.566;9.774;2022-08-20T16:48:52;26.30;99.90
12926;DHT22;6529;50.566;9.774;2022-08-20T16:53:58;25.80;99.90